Time;durP1;ratioP1;P1;durP2;ratioP2;P2;SDS_P1;SDS_P2;PMS_P1;PMS_P2;Temp;Humidity;BMP_temperature;BMP_pressure;BME280_temperature;BME280_humidity;BME280_pressure;Samples;Min_cycle;Max_cycle;Signal;HPM_P1;HPM_P2
2022/10/01 00:01:07;;;;;;;14.27;12.88;;;11.50;99.90;;;;;;4916513;29;20058;-74
2022/10/01 00:03:35;;;;;;;13.60;12.50;;;11.50;99.90;;;;;;4930294;29;20051;-74
2022/10/01 00:06:08;;;;;;;14.98;13.68;;;11.50;99.90;;;;;;4923310;28;20433;-68
2022/10/01 00:08:36;;;;;;;15.55;14.15;;;11.50;99.90;;;;;;4930411;29;20051;-69
2022/10/01 00:11:07;;;;;;;14.85;13.60;;;11.40;99.90;;;;;;4907054;29;20498;-69
2022/10/01 00:13:32;;;;;;;17.17;15.68;;;11.40;99.90;;;;;;4938931;28;20462;-69
2022/10/01 00:16:02;;;;;;;16.50;14.93;;;11.40;99.90;;;;;;4938007;28;20046;-69
2022/10/01 00:18:29;;;;;;;15.70;14.40;;;11.40;99.90;;;;;;4927709;29;20043;-69
2022/10/01 00:20:55;;;;;;;16.42;14.93;;;11.40;99.90;;;;;;4927253;28;20062;-69
2022/10/01 00:23:21;;;;;;;16.20;14.75;;;11.40;99.90;;;;;;4912013;29;20035;-70
2022/10/01 00:25:49;;;;;;;16.98;15.43;;;11.40;99.90;;;;;;4927995;29;20047;-69
2022/10/01 00:28:14;;;;;;;22.23;20.10;;;11.30;99.90;;;;;;4917495;29;20086;-69
2022/10/01 00:30:46;;;;;;;17.95;16.27;;;11.30;99.90;;;;;;4929279;29;20137;-70
2022/10/01 00:33:12;;;;;;;19.20;17.45;;;11.30;99.90;;;;;;4924091;29;20058;-69
2022/10/01 00:35:37;;;;;;;17.10;15.65;;;11.30;99.90;;;;;;4906786;29;20047;-69
2022/10/01 00:38:03;;;;;;;17.65;16.08;;;11.30;99.90;;;;;;4914578;29;20055;-69
2022/10/01 00:40:30;;;;;;;21.08;19.27;;;11.30;99.90;;;;;;4920448;28;20435;-69
2022/10/01 00:42:55;;;;;;;20.65;18.80;;;11.30;99.90;;;;;;4944036;28;20179;-69
2022/10/01 00:45:21;;;;;;;19.65;17.95;;;11.30;99.90;;;;;;4915323;29;20612;-70
2022/10/01 00:47:54;;;;;;;18.70;17.00;;;11.30;99.90;;;;;;4913877;29;20054;-70
2022/10/01 00:50:33;;;;;;;19.20;17.63;;;11.20;99.90;;;;;;4924911;28;20066;-69
2022/10/01 00:53:06;;;;;;;19.95;18.05;;;11.20;99.90;;;;;;4939956;28;20099;-69
2022/10/01 00:55:39;;;;;;;18.65;16.95;;;11.20;99.90;;;;;;4911912;28;20054;-70
2022/10/01 00:58:07;;;;;;;20.85;18.95;;;11.20;99.90;;;;;;4925809;29;20051;-68
2022/10/01 01:00:36;;;;;;;18.42;16.83;;;11.20;99.90;;;;;;4911846;28;20051;-69
2022/10/01 01:03:02;;;;;;;20.73;18.85;;;11.20;99.90;;;;;;4929121;29;20040;-69
2022/10/01 01:05:31;;;;;;;21.55;19.50;;;11.20;99.90;;;;;;4904482;28;20047;-74
2022/10/01 01:08:00;;;;;;;18.88;17.17;;;11.20;99.90;;;;;;4914197;29;20055;-75
2022/10/01 01:10:50;;;;;;;18.63;16.92;;;11.20;99.90;;;;;;4916974;29;20156;-75
2022/10/01 01:13:57;;;;;;;18.88;17.30;;;11.10;99.90;;;;;;4930400;29;20118;-76
2022/10/01 01:16:38;;;;;;;23.35;21.23;;;11.10;99.90;;;;;;4904656;29;20360;-75
2022/10/01 01:19:19;;;;;;;18.95;17.25;;;11.10;99.90;;;;;;4900029;29;20058;-75
2022/10/01 01:21:50;;;;;;;20.15;18.33;;;11.10;99.90;;;;;;4915659;29;20090;-74
2022/10/01 01:24:30;;;;;;;20.42;18.63;;;11.10;99.90;;;;;;4926721;29;20561;-75
2022/10/01 01:27:17;;;;;;;20.55;18.75;;;11.10;99.90;;;;;;4935404;28;20044;-75
2022/10/01 01:29:59;;;;;;;19.75;18.05;;;11.10;99.90;;;;;;4927201;29;20106;-74
2022/10/01 01:32:33;;;;;;;26.85;24.05;;;11.10;99.90;;;;;;4925576;29;20070;-74
2022/10/01 01:35:03;;;;;;;19.48;17.67;;;11.10;99.90;;;;;;4927962;29;20085;-75
2022/10/01 01:37:37;;;;;;;20.43;18.60;;;11.10;99.90;;;;;;4939822;28;20047;-75
2022/10/01 01:40:09;;;;;;;20.55;18.80;;;11.10;99.90;;;;;;4935148;28;20065;-75
2022/10/01 01:42:39;;;;;;;24.50;22.17;;;11.00;99.90;;;;;;4939324;28;20327;-75
2022/10/01 01:45:11;;;;;;;20.05;18.27;;;11.00;99.90;;;;;;4930735;28;20051;-75
2022/10/01 01:47:40;;;;;;;20.40;18.70;;;11.10;99.90;;;;;;4920858;29;20043;-75
2022/10/01 01:50:09;;;;;;;22.08;20.13;;;11.10;99.90;;;;;;4930869;28;20047;-75
2022/10/01 01:52:37;;;;;;;20.30;18.57;;;11.10;99.90;;;;;;4924413;29;20074;-76
2022/10/01 01:55:06;;;;;;;21.75;19.73;;;11.10;99.90;;;;;;4920085;29;20070;-75
2022/10/01 01:57:33;;;;;;;18.02;16.52;;;11.10;99.90;;;;;;4929254;29;20502;-75
2022/10/01 02:00:02;;;;;;;21.80;19.90;;;11.10;99.90;;;;;;4929580;29;20047;-75
2022/10/01 02:02:34;;;;;;;20.30;18.50;;;11.00;99.90;;;;;;4922510;29;20059;-75
2022/10/01 02:05:07;;;;;;;18.33;16.73;;;11.10;99.90;;;;;;4927804;28;20106;-75
2022/10/01 02:07:50;;;;;;;19.98;18.05;;;11.10;99.90;;;;;;4923258;29;20502;-75
2022/10/01 02:10:31;;;;;;;18.67;16.98;;;11.00;99.90;;;;;;4920051;29;20051;-74
2022/10/01 02:13:15;;;;;;;19.30;17.67;;;11.00;99.90;;;;;;4927494;29;20087;-75
2022/10/01 02:15:54;;;;;;;19.90;18.17;;;11.00;99.90;;;;;;4933443;28;20175;-75
2022/10/01 02:18:50;;;;;;;18.70;17.05;;;11.00;99.90;;;;;;4903449;29;21298;-74
2022/10/01 02:21:27;;;;;;;18.30;16.80;;;11.00;99.90;;;;;;4934904;28;20048;-73
2022/10/01 02:24:06;;;;;;;18.23;16.58;;;11.00;99.90;;;;;;4924375;29;20252;-74
2022/10/01 02:26:35;;;;;;;18.05;16.52;;;11.00;99.90;;;;;;4928959;29;20051;-74
2022/10/01 02:29:07;;;;;;;17.92;16.30;;;11.00;99.90;;;;;;4930164;29;20173;-74
2022/10/01 02:31:33;;;;;;;18.30;16.73;;;11.00;99.90;;;;;;4927614;29;20051;-73
2022/10/01 02:34:01;;;;;;;20.30;18.27;;;11.10;99.90;;;;;;4911877;29;20100;-74
2022/10/01 02:36:30;;;;;;;20.50;18.80;;;11.10;99.90;;;;;;4916171;29;20035;-74
2022/10/01 02:38:56;;;;;;;16.17;14.68;;;11.10;99.90;;;;;;4926031;29;20063;-74
2022/10/01 02:41:27;;;;;;;16.98;15.48;;;11.10;99.90;;;;;;4929225;28;20051;-74
2022/10/01 02:44:01;;;;;;;18.15;16.52;;;11.10;99.90;;;;;;4919989;29;20091;-74
2022/10/01 02:47:15;;;;;;;15.63;14.27;;;11.10;99.90;;;;;;4942033;28;20044;-74
2022/10/01 02:49:41;;;;;;;17.27;15.88;;;11.10;99.90;;;;;;4929272;28;20051;-75
2022/10/01 02:52:23;;;;;;;17.88;16.33;;;11.10;99.90;;;;;;4936019;28;20098;-74
2022/10/01 02:54:59;;;;;;;17.30;15.90;;;11.10;99.90;;;;;;4946854;28;20047;-74
2022/10/01 02:57:26;;;;;;;15.30;14.00;;;11.10;99.90;;;;;;4912423;29;20071;-74
2022/10/01 03:00:01;;;;;;;13.93;12.73;;;11.10;99.90;;;;;;4937202;28;20098;-74
2022/10/01 03:02:31;;;;;;;16.20;14.80;;;11.20;99.90;;;;;;4913743;29;20044;-74
2022/10/01 03:05:01;;;;;;;13.70;12.50;;;11.20;99.90;;;;;;4914936;29;20050;-74
2022/10/01 03:07:29;;;;;;;13.40;12.30;;;11.20;99.90;;;;;;4920732;29;20043;-74
2022/10/01 03:09:55;;;;;;;12.18;11.07;;;11.10;99.90;;;;;;4922850;29;20043;-74
2022/10/01 03:12:22;;;;;;;11.82;10.82;;;11.20;99.90;;;;;;4937144;28;20058;-74
2022/10/01 03:14:48;;;;;;;12.73;11.65;;;11.20;99.90;;;;;;4915510;28;20058;-74
2022/10/01 03:17:15;;;;;;;11.38;10.43;;;11.20;99.90;;;;;;4949711;28;20039;-76
2022/10/01 03:19:41;;;;;;;11.80;10.80;;;11.20;99.90;;;;;;4896481;29;20043;-74
2022/10/01 03:22:10;;;;;;;12.75;11.65;;;11.20;99.90;;;;;;4911060;29;20497;-74
2022/10/01 03:24:36;;;;;;;11.52;10.50;;;11.30;99.90;;;;;;4924746;29;20051;-75
2022/10/01 03:27:02;;;;;;;11.13;10.23;;;11.30;99.90;;;;;;4921118;29;20379;-75
2022/10/01 03:29:28;;;;;;;11.23;10.23;;;11.30;99.90;;;;;;4911864;29;20051;-75
2022/10/01 03:31:56;;;;;;;11.60;10.55;;;11.30;99.90;;;;;;4921762;29;20454;-75
2022/10/01 03:34:22;;;;;;;10.98;9.98;;;11.30;99.90;;;;;;4923677;29;20035;-75
2022/10/01 03:36:51;;;;;;;9.98;9.18;;;11.30;99.90;;;;;;4908672;29;20043;-75
2022/10/01 03:39:17;;;;;;;11.23;10.23;;;11.30;99.90;;;;;;4915183;29;20380;-75
2022/10/01 03:41:43;;;;;;;10.32;9.43;;;11.30;99.90;;;;;;4910499;29;20163;-74
2022/10/01 03:44:09;;;;;;;12.02;10.90;;;11.30;99.90;;;;;;4918233;29;20048;-74
2022/10/01 03:46:35;;;;;;;9.63;8.68;;;11.30;99.90;;;;;;4926599;29;20039;-74
2022/10/01 03:49:01;;;;;;;8.77;7.88;;;11.30;99.90;;;;;;4922584;29;20039;-75
2022/10/01 03:51:31;;;;;;;7.78;6.97;;;11.30;99.90;;;;;;4922233;29;20111;-75
2022/10/01 03:53:57;;;;;;;7.75;7.13;;;11.30;99.90;;;;;;4929956;29;20093;-74
2022/10/01 03:56:24;;;;;;;8.05;7.35;;;11.30;99.90;;;;;;4933185;29;20047;-74
2022/10/01 03:58:50;;;;;;;10.25;9.35;;;11.30;99.90;;;;;;4930046;29;20051;-74
2022/10/01 04:01:16;;;;;;;8.48;7.68;;;11.30;99.90;;;;;;4927380;29;20039;-76
2022/10/01 04:03:42;;;;;;;7.47;6.78;;;11.30;99.90;;;;;;4904147;29;20102;-75
2022/10/01 04:06:09;;;;;;;7.40;6.78;;;11.40;99.90;;;;;;4918313;29;20044;-74
2022/10/01 04:08:35;;;;;;;8.38;7.63;;;11.30;99.90;;;;;;4925449;28;20874;-75
2022/10/01 04:11:00;;;;;;;8.35;7.55;;;11.30;99.90;;;;;;4925104;29;20044;-75
2022/10/01 04:13:28;;;;;;;8.38;7.43;;;11.30;99.90;;;;;;4920052;29;20035;-74
2022/10/01 04:15:54;;;;;;;8.27;7.15;;;11.30;99.90;;;;;;4919389;29;20040;-75
2022/10/01 04:18:20;;;;;;;7.70;7.00;;;11.30;99.90;;;;;;4920414;28;20062;-74
2022/10/01 04:20:47;;;;;;;7.18;6.47;;;11.30;99.90;;;;;;4935393;29;20050;-74
2022/10/01 04:23:13;;;;;;;7.90;7.05;;;11.30;99.90;;;;;;4931462;29;20036;-75
2022/10/01 04:25:38;;;;;;;7.13;6.53;;;11.30;99.90;;;;;;4921206;29;20035;-74
2022/10/01 04:28:06;;;;;;;7.07;6.43;;;11.30;99.90;;;;;;4922473;28;20070;-74
2022/10/01 04:30:37;;;;;;;7.32;6.65;;;11.40;99.90;;;;;;4917142;29;20079;-75
2022/10/01 04:33:04;;;;;;;7.40;6.72;;;11.40;99.90;;;;;;4914612;28;20048;-74
2022/10/01 04:35:30;;;;;;;7.53;6.82;;;11.40;99.90;;;;;;4916493;29;20051;-74
2022/10/01 04:38:02;;;;;;;7.03;6.32;;;11.40;99.90;;;;;;4913800;28;20081;-75
2022/10/01 04:40:33;;;;;;;7.05;6.35;;;11.40;99.90;;;;;;4917693;29;20958;-75
2022/10/01 04:43:09;;;;;;;8.18;7.38;;;11.40;99.90;;;;;;4930542;29;20086;-75
2022/10/01 04:45:38;;;;;;;7.32;6.63;;;11.40;99.90;;;;;;4929768;29;20078;-75
2022/10/01 04:48:04;;;;;;;7.32;6.68;;;11.50;99.90;;;;;;4924704;29;20051;-74
2022/10/01 04:50:30;;;;;;;7.80;7.00;;;11.50;99.90;;;;;;4918809;29;20117;-75
2022/10/01 04:52:56;;;;;;;6.82;6.13;;;11.50;99.90;;;;;;4925231;29;20047;-74
2022/10/01 04:55:22;;;;;;;7.15;6.53;;;11.50;99.90;;;;;;4950669;28;20553;-74
2022/10/01 04:57:48;;;;;;;7.60;6.80;;;11.50;99.90;;;;;;4913685;29;21124;-75
2022/10/01 05:00:20;;;;;;;7.55;6.32;;;11.50;99.90;;;;;;4933565;28;20046;-74
2022/10/01 05:02:50;;;;;;;8.35;7.57;;;11.50;99.90;;;;;;4940597;28;20058;-75
2022/10/01 05:05:18;;;;;;;6.80;6.20;;;11.50;99.90;;;;;;4903096;28;20131;-75
2022/10/01 05:07:44;;;;;;;7.63;6.93;;;11.50;99.90;;;;;;4916942;29;20059;-75
2022/10/01 05:10:12;;;;;;;8.05;7.25;;;11.60;99.90;;;;;;4916540;28;20038;-75
2022/10/01 05:12:38;;;;;;;7.97;7.20;;;11.60;99.90;;;;;;4937212;29;20047;-75
2022/10/01 05:15:04;;;;;;;7.97;7.18;;;11.60;99.90;;;;;;4926569;29;20055;-75
2022/10/01 05:17:31;;;;;;;8.70;7.90;;;11.60;99.90;;;;;;4908115;29;20139;-75
2022/10/01 05:19:57;;;;;;;8.18;7.47;;;11.60;99.90;;;;;;4939845;28;20058;-75
2022/10/01 05:22:23;;;;;;;8.00;7.25;;;11.60;99.90;;;;;;4926072;29;20450;-75
2022/10/01 05:24:50;;;;;;;8.32;7.55;;;11.60;99.90;;;;;;4931019;29;20067;-75
2022/10/01 05:27:16;;;;;;;8.52;7.82;;;11.70;99.90;;;;;;4906155;29;20070;-75
2022/10/01 05:29:42;;;;;;;7.72;7.03;;;11.70;99.90;;;;;;4916156;29;20607;-75
2022/10/01 05:32:09;;;;;;;9.25;8.45;;;11.70;99.90;;;;;;4898050;29;20109;-76
2022/10/01 05:34:35;;;;;;;8.85;8.05;;;11.80;99.90;;;;;;4919126;29;20071;-75
2022/10/01 05:37:01;;;;;;;9.52;8.52;;;11.80;99.90;;;;;;4921174;29;20558;-76
2022/10/01 05:39:28;;;;;;;10.75;9.75;;;11.80;99.90;;;;;;4927364;28;20569;-75
2022/10/01 05:41:55;;;;;;;9.23;8.52;;;11.80;99.90;;;;;;4920980;29;20051;-75
2022/10/01 05:44:22;;;;;;;10.68;9.68;;;11.90;99.90;;;;;;4912653;29;20051;-75
2022/10/01 05:46:49;;;;;;;10.88;9.77;;;11.90;99.90;;;;;;4924822;29;20099;-75
2022/10/01 05:49:16;;;;;;;9.18;8.45;;;11.90;99.90;;;;;;4909749;29;20098;-75
2022/10/01 05:51:45;;;;;;;11.02;10.02;;;11.90;99.90;;;;;;4904435;29;20043;-75
2022/10/01 05:54:12;;;;;;;11.25;10.38;;;11.90;99.90;;;;;;4916232;29;20039;-75
2022/10/01 05:56:38;;;;;;;12.23;11.20;;;12.00;99.90;;;;;;4915379;29;20455;-74
2022/10/01 05:59:04;;;;;;;11.48;10.48;;;12.00;99.90;;;;;;4922095;29;20070;-74
2022/10/01 06:01:33;;;;;;;11.25;10.35;;;12.00;99.90;;;;;;4915406;29;20105;-74
2022/10/01 06:04:02;;;;;;;12.27;11.18;;;12.10;99.90;;;;;;4913139;28;20046;-74
2022/10/01 06:06:28;;;;;;;12.32;11.30;;;12.10;99.90;;;;;;4923664;29;20059;-74
2022/10/01 06:08:54;;;;;;;12.52;11.52;;;12.10;99.90;;;;;;4923156;28;20432;-74
2022/10/01 06:11:23;;;;;;;12.88;11.90;;;12.10;99.90;;;;;;4912987;29;20055;-74
2022/10/01 06:13:50;;;;;;;14.57;13.30;;;12.20;99.90;;;;;;4901666;28;20047;-74
2022/10/01 06:16:16;;;;;;;14.77;13.50;;;12.20;99.90;;;;;;4927425;29;20059;-74
2022/10/01 06:18:42;;;;;;;14.70;13.50;;;12.20;99.90;;;;;;4914820;28;20482;-74
2022/10/01 06:21:08;;;;;;;13.77;12.68;;;12.20;99.90;;;;;;4926710;29;20043;-74
2022/10/01 06:23:35;;;;;;;14.68;13.55;;;12.20;99.90;;;;;;4926304;28;20055;-74
2022/10/01 06:26:07;;;;;;;15.98;14.68;;;12.30;99.90;;;;;;4912228;29;20043;-74
2022/10/01 06:28:33;;;;;;;15.75;14.55;;;12.30;99.90;;;;;;4940693;28;20506;-74
2022/10/01 06:31:02;;;;;;;16.58;15.18;;;12.30;99.90;;;;;;4927301;29;20042;-74
2022/10/01 06:33:29;;;;;;;17.80;16.25;;;12.40;99.90;;;;;;4911917;29;20051;-75
2022/10/01 06:35:54;;;;;;;16.15;14.80;;;12.30;99.90;;;;;;4927978;29;20050;-74
2022/10/01 06:38:21;;;;;;;16.52;14.98;;;12.40;99.90;;;;;;4928316;28;20315;-75
2022/10/01 06:40:56;;;;;;;18.08;16.45;;;12.40;99.90;;;;;;4942907;28;20399;-74
2022/10/01 06:43:23;;;;;;;18.25;16.67;;;12.40;99.90;;;;;;4910199;28;20047;-75
2022/10/01 06:45:49;;;;;;;16.02;14.68;;;12.50;99.90;;;;;;4927320;29;20707;-75
2022/10/01 06:48:17;;;;;;;16.50;15.10;;;12.50;99.90;;;;;;4913800;29;20114;-74
2022/10/01 06:50:45;;;;;;;15.65;14.02;;;12.60;99.90;;;;;;4928354;29;20501;-74
2022/10/01 06:53:12;;;;;;;17.23;15.82;;;12.60;99.90;;;;;;4923241;29;20051;-69
2022/10/01 06:55:39;;;;;;;15.00;13.70;;;12.60;99.90;;;;;;4944025;28;20043;-69
2022/10/01 06:58:15;;;;;;;14.40;13.05;;;12.70;99.90;;;;;;4920474;29;20070;-69
2022/10/01 07:00:42;;;;;;;14.75;13.50;;;12.70;99.90;;;;;;4950972;28;20539;-69
2022/10/01 07:03:12;;;;;;;14.52;13.32;;;12.80;99.90;;;;;;4923797;28;20054;-69
2022/10/01 07:05:39;;;;;;;15.40;14.18;;;12.80;99.90;;;;;;4939488;28;20086;-70
2022/10/01 07:08:05;;;;;;;16.85;15.25;;;12.80;99.90;;;;;;4928801;28;20064;-69
2022/10/01 07:10:33;;;;;;;17.13;15.23;;;12.80;99.90;;;;;;4931394;29;20555;-69
2022/10/01 07:13:10;;;;;;;16.73;15.02;;;12.80;99.90;;;;;;4910814;28;20047;-70
2022/10/01 07:15:36;;;;;;;25.00;21.58;;;12.90;99.90;;;;;;4916418;29;20047;-69
2022/10/01 07:18:02;;;;;;;18.95;17.35;;;12.80;99.90;;;;;;4920194;28;20442;-69
2022/10/01 07:20:34;;;;;;;23.80;21.65;;;12.80;99.90;;;;;;4928687;29;20050;-69
2022/10/01 07:23:01;;;;;;;17.98;16.23;;;12.80;99.90;;;;;;4929108;29;20047;-69
2022/10/01 07:25:27;;;;;;;17.30;15.73;;;12.80;99.90;;;;;;4954071;28;20050;-69
2022/10/01 07:27:57;;;;;;;20.25;18.38;;;12.90;99.90;;;;;;4909330;29;20044;-69
2022/10/01 07:30:26;;;;;;;24.95;22.55;;;12.90;99.90;;;;;;4906096;29;20043;-69
2022/10/01 07:32:53;;;;;;;20.23;18.25;;;12.90;99.90;;;;;;4932502;29;20059;-69
2022/10/01 07:35:19;;;;;;;20.08;18.02;;;13.00;99.90;;;;;;4928667;29;20583;-70
2022/10/01 07:37:49;;;;;;;20.05;18.13;;;13.00;99.90;;;;;;4923075;28;20510;-74
2022/10/01 07:40:17;;;;;;;18.48;16.70;;;13.10;99.90;;;;;;4928896;29;20494;-74
2022/10/01 07:42:52;;;;;;;18.60;16.63;;;13.10;99.90;;;;;;4920213;28;20110;-74
2022/10/01 07:45:20;;;;;;;19.45;17.67;;;13.20;99.90;;;;;;4932769;29;20206;-74
2022/10/01 07:47:52;;;;;;;18.13;16.30;;;13.30;99.90;;;;;;4925976;29;20066;-73
2022/10/01 07:50:17;;;;;;;17.80;16.00;;;13.40;99.90;;;;;;4913869;29;20486;-74
2022/10/01 07:52:43;;;;;;;16.92;14.05;;;13.40;99.90;;;;;;4921977;28;20586;-74
2022/10/01 07:55:12;;;;;;;14.40;12.95;;;13.40;99.90;;;;;;4919467;29;20051;-74
2022/10/01 07:57:38;;;;;;;11.40;9.30;;;13.40;99.90;;;;;;4913226;29;20565;-74
2022/10/01 08:00:05;;;;;;;12.80;9.88;;;13.30;99.90;;;;;;4924706;29;20079;-69
2022/10/01 08:02:30;;;;;;;12.05;9.30;;;13.30;99.90;;;;;;4907219;29;20043;-69
2022/10/01 08:07:40;;;;;;;11.55;8.13;;;13.60;99.90;;;;;;4921030;28;20048;-70
2022/10/01 08:10:07;;;;;;;12.40;7.47;;;13.80;99.90;;;;;;4913213;29;20054;-70
2022/10/01 08:12:33;;;;;;;11.10;7.50;;;14.00;99.90;;;;;;4944223;28;20052;-69
2022/10/01 08:15:02;;;;;;;11.95;6.63;;;14.20;99.90;;;;;;4931071;29;20355;-69
2022/10/01 08:17:27;;;;;;;12.93;8.35;;;14.50;99.90;;;;;;4916599;29;20058;-69
2022/10/01 08:19:53;;;;;;;12.75;6.60;;;14.60;99.90;;;;;;4911582;28;20047;-69
2022/10/01 08:22:19;;;;;;;10.05;5.88;;;14.70;99.90;;;;;;4892519;29;20658;-70
2022/10/01 08:24:45;;;;;;;10.75;5.78;;;14.90;99.90;;;;;;4919972;29;20077;-70
2022/10/01 08:27:11;;;;;;;10.27;5.88;;;15.10;99.90;;;;;;4900092;29;20498;-70
2022/10/01 08:29:37;;;;;;;9.48;4.50;;;15.20;99.90;;;;;;4898579;28;20044;-70
2022/10/01 08:32:02;;;;;;;11.82;4.63;;;15.30;99.90;;;;;;4916169;29;20085;-70
2022/10/01 08:34:30;;;;;;;10.68;3.92;;;15.50;99.90;;;;;;4908504;28;20879;-70
2022/10/01 08:36:55;;;;;;;12.63;4.72;;;15.60;99.90;;;;;;4926236;29;20136;-70
2022/10/01 08:39:22;;;;;;;14.75;4.47;;;15.60;99.90;;;;;;4912718;28;20517;-69
2022/10/01 08:41:54;;;;;;;11.77;4.07;;;15.80;99.90;;;;;;4929051;29;20048;-69
2022/10/01 08:44:27;;;;;;;11.07;3.90;;;15.90;99.90;;;;;;4911792;29;20047;-69
2022/10/01 08:46:59;;;;;;;10.13;3.10;;;15.90;99.90;;;;;;4912514;29;20091;-69
2022/10/01 08:49:33;;;;;;;10.35;4.22;;;16.10;99.90;;;;;;4910989;29;20047;-70
2022/10/01 08:52:23;;;;;;;10.40;3.05;;;16.30;99.90;;;;;;4946417;28;20532;-70
2022/10/01 08:55:08;;;;;;;11.80;3.00;;;16.30;99.90;;;;;;4921512;29;20055;-75
2022/10/01 08:57:42;;;;;;;10.18;2.25;;;16.30;99.90;;;;;;4924431;28;20079;-75
2022/10/01 09:00:13;;;;;;;11.52;2.92;;;16.20;99.90;;;;;;4909243;28;20101;-75
2022/10/01 09:02:42;;;;;;;11.00;2.83;;;16.10;99.90;;;;;;4931951;28;20498;-75
2022/10/01 09:05:30;;;;;;;12.20;2.50;;;16.10;99.90;;;;;;4927809;28;20465;-75
2022/10/01 09:08:08;;;;;;;11.65;2.88;;;16.00;99.90;;;;;;4912525;28;20050;-75
2022/10/01 09:10:43;;;;;;;12.52;2.75;;;16.10;99.90;;;;;;4926276;28;20078;-75
2022/10/01 09:13:46;;;;;;;10.63;2.83;;;16.10;99.90;;;;;;4924875;28;20078;-75
2022/10/01 09:16:21;;;;;;;10.63;3.08;;;16.10;99.90;;;;;;4924337;28;20407;-75
2022/10/01 09:19:26;;;;;;;10.68;2.60;;;16.20;99.90;;;;;;4926434;28;20058;-75
2022/10/01 09:21:56;;;;;;;13.10;2.97;;;16.20;99.90;;;;;;4923829;28;20467;-76
2022/10/01 09:24:30;;;;;;;7.85;2.33;;;16.30;99.90;;;;;;4930366;28;20039;-75
2022/10/01 09:26:56;;;;;;;6.88;2.30;;;16.40;99.90;;;;;;4942736;28;20106;-76
2022/10/01 09:29:27;;;;;;;8.68;2.10;;;16.50;99.90;;;;;;4914703;28;20039;-71
2022/10/01 09:31:55;;;;;;;9.25;2.20;;;16.60;99.90;;;;;;4922098;28;20130;-70
2022/10/01 09:34:32;;;;;;;10.65;2.42;;;16.60;99.90;;;;;;4929868;29;20042;-70
2022/10/01 09:37:14;;;;;;;12.05;2.22;;;16.60;99.90;;;;;;4904775;28;20086;-70
2022/10/01 09:39:58;;;;;;;12.13;4.15;;;16.50;99.90;;;;;;4932184;28;20496;-70
2022/10/01 09:42:28;;;;;;;9.13;2.80;;;16.30;99.90;;;;;;4910850;28;20078;-70
2022/10/01 09:44:58;;;;;;;7.97;2.10;;;16.10;99.90;;;;;;4926344;28;20047;-70
2022/10/01 09:47:27;;;;;;;7.47;1.87;;;16.00;99.90;;;;;;4944653;28;20082;-70
2022/10/01 09:49:52;;;;;;;5.78;1.20;;;16.00;99.90;;;;;;4925991;28;20091;-70
2022/10/01 09:52:35;;;;;;;7.40;1.58;;;16.00;99.90;;;;;;4915218;29;20632;-70
2022/10/01 09:55:14;;;;;;;7.72;1.70;;;16.00;99.90;;;;;;4937589;29;20047;-70
2022/10/01 09:57:46;;;;;;;7.28;1.50;;;15.90;99.90;;;;;;4912533;28;19933;-70
2022/10/01 10:00:21;;;;;;;4.38;1.08;;;15.70;99.90;;;;;;4927672;29;20518;-70
2022/10/01 10:02:49;;;;;;;4.15;1.10;;;15.50;99.90;;;;;;4927056;29;20102;-70
2022/10/01 10:05:16;;;;;;;4.40;1.20;;;15.40;99.90;;;;;;4925297;29;20122;-70
2022/10/01 10:07:51;;;;;;;5.18;1.20;;;15.20;99.90;;;;;;4926465;28;20545;-70
2022/10/01 10:10:18;;;;;;;3.95;1.23;;;15.10;99.90;;;;;;4922496;29;20040;-70
2022/10/01 10:12:45;;;;;;;4.05;1.10;;;15.00;99.90;;;;;;4923791;28;20099;-69
2022/10/01 10:15:20;;;;;;;6.45;1.38;;;14.90;99.90;;;;;;4920577;29;20510;-70
2022/10/01 10:17:50;;;;;;;5.03;1.27;;;14.90;99.90;;;;;;4911010;29;20059;-69
2022/10/01 10:20:42;;;;;;;6.18;1.20;;;14.90;99.90;;;;;;4923350;29;20521;-70
2022/10/01 10:23:28;;;;;;;5.38;1.33;;;14.90;99.90;;;;;;4927329;28;20536;-69
2022/10/01 10:26:01;;;;;;;5.47;1.45;;;15.00;99.90;;;;;;4930324;29;20475;-70
2022/10/01 10:28:43;;;;;;;5.43;1.40;;;15.20;99.90;;;;;;4927684;29;20035;-69
2022/10/01 10:31:24;;;;;;;6.85;1.70;;;15.20;99.90;;;;;;4911203;29;20048;-70
2022/10/01 10:33:52;;;;;;;9.95;2.22;;;15.20;99.90;;;;;;4932397;29;20589;-70
2022/10/01 10:36:21;;;;;;;8.52;1.63;;;15.20;99.90;;;;;;4925875;28;20038;-70
2022/10/01 10:38:51;;;;;;;9.90;1.90;;;15.10;99.90;;;;;;4918257;29;20058;-70
2022/10/01 10:41:24;;;;;;;10.27;2.03;;;15.00;99.90;;;;;;4928684;29;20130;-69
2022/10/01 10:43:56;;;;;;;7.43;1.50;;;14.90;99.90;;;;;;4918205;29;20039;-69
2022/10/01 10:46:30;;;;;;;5.97;1.45;;;14.80;99.90;;;;;;4932229;29;20039;-70
2022/10/01 10:49:03;;;;;;;7.85;1.60;;;14.50;99.90;;;;;;4928175;28;20044;-70
2022/10/01 10:51:41;;;;;;;5.07;1.17;;;14.40;99.90;;;;;;4914350;29;20426;-70
2022/10/01 10:54:40;;;;;;;3.40;1.10;;;14.20;99.90;;;;;;4932950;29;20069;-69
2022/10/01 10:57:29;;;;;;;6.50;1.30;;;14.10;99.90;;;;;;4855628;29;20066;-70
2022/10/01 11:00:01;;;;;;;13.57;1.85;;;14.00;99.90;;;;;;4875808;29;20521;-70
2022/10/01 11:02:32;;;;;;;6.50;1.20;;;13.90;99.90;;;;;;4930394;29;20446;-73
2022/10/01 11:05:02;;;;;;;7.38;1.10;;;13.80;99.90;;;;;;4926873;28;20445;-74
2022/10/01 11:07:32;;;;;;;;;;;13.80;99.90;;;;;;4937362;29;20087;-74
2022/10/01 11:10:06;;;;;;;5.07;0.80;;;13.80;99.90;;;;;;4930475;28;19926;-74
2022/10/01 11:12:55;;;;;;;4.70;1.10;;;13.80;99.90;;;;;;4935919;29;20051;-74
2022/10/01 11:15:48;;;;;;;6.20;1.55;;;13.80;99.90;;;;;;4928993;29;20771;-74
2022/10/01 11:18:23;;;;;;;8.02;1.58;;;13.90;99.90;;;;;;4931535;28;20055;-73
2022/10/01 11:21:20;;;;;;;8.32;1.67;;;13.90;99.90;;;;;;4932685;29;20051;-73
2022/10/01 11:24:09;;;;;;;8.27;2.05;;;14.00;99.90;;;;;;4933427;29;20051;-73
2022/10/01 11:26:54;;;;;;;9.05;1.90;;;14.00;99.90;;;;;;4925870;29;20057;-74
2022/10/01 11:29:29;;;;;;;6.45;1.52;;;14.10;99.90;;;;;;4930812;29;20107;-73
2022/10/01 11:32:16;;;;;;;8.30;2.15;;;14.10;99.90;;;;;;4943217;28;20071;-73
2022/10/01 11:34:57;;;;;;;9.50;2.20;;;14.30;99.90;;;;;;4919671;29;20532;-74
2022/10/01 11:37:44;;;;;;;8.10;2.63;;;14.50;99.90;;;;;;4933926;28;20499;-74
2022/10/01 11:40:34;;;;;;;10.35;2.25;;;14.70;99.90;;;;;;4929746;29;20413;-74
2022/10/01 11:43:09;;;;;;;10.57;3.10;;;14.80;99.90;;;;;;4944382;28;20059;-74
2022/10/01 11:45:42;;;;;;;10.32;2.65;;;15.00;99.90;;;;;;4922967;29;20479;-74
2022/10/01 11:48:29;;;;;;;10.93;2.80;;;15.20;99.90;;;;;;4914856;28;20050;-74
2022/10/01 11:51:00;;;;;;;9.75;2.28;;;15.30;99.90;;;;;;4933174;29;20047;-74
2022/10/01 11:53:43;;;;;;;12.77;2.45;;;15.40;99.90;;;;;;4928368;29;20087;-74
2022/10/01 11:59:21;;;;;;;11.18;2.78;;;15.70;99.90;;;;;;4934671;28;20839;-74
2022/10/01 12:02:18;;;;;;;11.63;2.80;;;15.80;99.90;;;;;;4931105;29;20418;-74
2022/10/01 12:04:57;;;;;;;10.02;2.60;;;15.90;99.90;;;;;;4928556;29;20402;-74
2022/10/01 12:08:00;;;;;;;15.02;2.45;;;16.00;99.90;;;;;;4928406;28;20052;-74
2022/10/01 12:10:40;;;;;;;11.27;2.50;;;16.20;99.90;;;;;;4890513;29;20056;-74
2022/10/01 12:13:18;;;;;;;12.65;2.47;;;16.20;99.90;;;;;;4915885;29;20502;-74
2022/10/01 12:16:00;;;;;;;11.75;2.70;;;16.10;99.90;;;;;;4926204;28;20051;-74
2022/10/01 12:18:52;;;;;;;11.25;2.22;;;16.00;99.90;;;;;;4927066;29;20054;-74
2022/10/01 12:21:35;;;;;;;10.65;2.55;;;15.90;99.90;;;;;;4933497;29;20074;-74
2022/10/01 12:24:09;;;;;;;14.10;2.75;;;15.70;99.90;;;;;;4925650;29;20422;-74
2022/10/01 12:27:10;;;;;;;10.63;2.90;;;15.60;99.90;;;;;;4926802;29;20382;-74
2022/10/01 12:29:45;;;;;;;14.48;3.03;;;15.60;99.90;;;;;;4927641;29;20074;-74
2022/10/01 12:32:35;;;;;;;9.43;2.50;;;15.60;99.90;;;;;;4928911;29;20047;-74
2022/10/01 12:35:34;;;;;;;13.00;2.38;;;15.60;99.90;;;;;;4929877;28;20063;-74
2022/10/01 12:38:25;;;;;;;12.40;2.35;;;15.70;99.90;;;;;;4926203;29;20522;-74
2022/10/01 12:41:18;;;;;;;11.70;2.70;;;15.80;99.90;;;;;;4923867;29;20431;-74
2022/10/01 12:44:26;;;;;;;15.27;2.53;;;15.80;99.90;;;;;;4945720;28;20058;-74
2022/10/01 12:47:05;;;;;;;8.95;2.33;;;15.70;99.90;;;;;;4931170;28;20052;-74
2022/10/01 12:49:48;;;;;;;11.35;2.78;;;15.60;99.90;;;;;;4929685;29;20563;-74
2022/10/01 12:52:32;;;;;;;10.15;2.50;;;15.60;99.90;;;;;;4933293;29;20059;-74
2022/10/01 12:55:20;;;;;;;10.88;2.13;;;15.50;99.90;;;;;;4903705;29;20047;-74
2022/10/01 12:57:59;;;;;;;11.45;2.55;;;15.40;99.90;;;;;;4892292;29;20404;-74
2022/10/01 13:00:30;;;;;;;11.45;2.30;;;15.50;99.90;;;;;;4914018;29;20063;-74
2022/10/01 13:03:28;;;;;;;10.52;2.45;;;15.50;99.90;;;;;;4911707;29;20054;-73
2022/10/01 13:06:25;;;;;;;11.43;2.65;;;15.70;99.90;;;;;;4895017;29;20039;-74
2022/10/01 13:08:52;;;;;;;15.07;3.45;;;15.80;99.90;;;;;;4907939;29;20398;-74